createdAt,value
2017-05-22T00:00:47.840Z,12.16
2017-05-22T00:01:47.856Z,12.1
2017-05-22T00:02:47.922Z,12.07
2017-05-22T00:03:47.926Z,12.04
2017-05-22T00:04:47.987Z,12
2017-05-22T00:05:48.030Z,11.89
2017-05-22T00:06:48.028Z,11.94
2017-05-22T00:07:48.089Z,12.05
2017-05-22T00:08:48.124Z,11.95
2017-05-22T00:09:48.156Z,12.01
2017-05-22T00:10:48.174Z,11.94
2017-05-22T00:11:48.224Z,11.94
2017-05-22T00:12:48.261Z,11.94
2017-05-22T00:13:48.290Z,11.95
2017-05-22T00:14:48.324Z,11.95
2017-05-22T00:15:48.373Z,11.94
2017-05-22T00:16:48.370Z,11.91
2017-05-22T00:17:48.398Z,12.01
2017-05-22T00:18:48.453Z,11.98
2017-05-22T00:19:48.467Z,11.91
2017-05-22T00:20:48.518Z,11.84
2017-05-22T00:21:48.544Z,11.88
2017-05-22T00:22:48.579Z,11.94
2017-05-22T00:23:48.623Z,11.86
2017-05-22T00:24:48.657Z,11.91
2017-05-22T00:25:48.679Z,11.86
2017-05-22T00:26:48.716Z,11.82
2017-05-22T00:27:48.768Z,11.84
2017-05-22T00:28:48.785Z,11.79
2017-05-22T00:29:48.812Z,11.82
2017-05-22T00:30:48.846Z,11.85
2017-05-22T00:31:48.894Z,11.85
2017-05-22T00:32:50.139Z,11.82
2017-05-22T00:33:48.954Z,11.85
2017-05-22T00:34:48.989Z,11.75
2017-05-22T00:35:49.009Z,11.78
2017-05-22T00:36:49.055Z,11.78
2017-05-22T00:37:49.093Z,11.78
2017-05-22T00:38:49.129Z,11.86
2017-05-22T00:39:49.165Z,11.84
2017-05-22T00:40:49.196Z,11.85
2017-05-22T00:41:49.208Z,11.85
2017-05-22T00:42:49.221Z,11.85
2017-05-22T00:43:49.281Z,11.91
2017-05-22T00:44:49.317Z,11.73
2017-05-22T00:45:49.356Z,11.84
2017-05-22T00:46:49.372Z,11.84
2017-05-22T00:47:49.435Z,11.88
2017-05-22T00:48:49.466Z,11.84
2017-05-22T00:49:49.478Z,11.85
2017-05-22T00:50:49.505Z,11.88
2017-05-22T00:51:49.567Z,11.84
2017-05-22T00:52:49.580Z,11.79
2017-05-22T00:53:49.612Z,11.86
2017-05-22T00:54:49.660Z,11.82
2017-05-22T00:55:49.697Z,11.81
2017-05-22T00:56:49.714Z,11.73
2017-05-22T00:57:49.759Z,11.75
2017-05-22T00:58:49.794Z,11.73
2017-05-22T00:59:49.824Z,11.88
2017-05-22T01:00:49.859Z,11.76
2017-05-22T01:01:49.887Z,11.73
2017-05-22T01:02:49.922Z,11.75
2017-05-22T01:03:49.973Z,11.89
2017-05-22T01:04:49.978Z,11.79
2017-05-22T01:05:50.022Z,11.71
2017-05-22T01:06:50.065Z,11.75
2017-05-22T01:07:50.098Z,11.7
2017-05-22T01:08:50.122Z,11.64
2017-05-22T01:09:50.159Z,11.68
2017-05-22T01:10:50.198Z,11.76
2017-05-22T01:11:50.211Z,11.71
2017-05-22T01:12:50.255Z,11.67
2017-05-22T01:13:50.295Z,11.67
2017-05-22T01:14:50.326Z,11.76
2017-05-22T01:15:50.360Z,11.7
2017-05-22T01:16:50.400Z,11.76
2017-05-22T01:17:50.433Z,11.66
2017-05-22T01:18:50.462Z,11.76
2017-05-22T01:19:50.499Z,11.63
2017-05-22T01:20:50.525Z,11.71
2017-05-22T01:21:50.560Z,11.71
2017-05-22T01:22:50.600Z,11.7
2017-05-22T01:23:50.625Z,11.7
2017-05-22T01:24:50.653Z,11.66
2017-05-22T01:25:50.690Z,11.73
2017-05-22T01:26:50.713Z,11.76
2017-05-22T01:27:50.759Z,11.66
2017-05-22T01:28:50.796Z,11.7
2017-05-22T01:29:50.823Z,11.67
2017-05-22T01:30:50.856Z,11.7
2017-05-22T01:31:50.888Z,11.64
2017-05-22T01:32:50.920Z,11.59
2017-05-22T01:33:50.954Z,11.57
2017-05-22T01:34:50.991Z,11.6
2017-05-22T01:35:51.005Z,11.51
2017-05-22T01:36:51.051Z,11.67
2017-05-22T01:37:51.087Z,11.57
2017-05-22T01:38:51.118Z,11.46
2017-05-22T01:39:51.150Z,11.43
2017-05-22T01:40:51.170Z,11.46
2017-05-22T01:41:51.223Z,11.52
2017-05-22T01:42:51.261Z,11.53
2017-05-22T01:43:51.297Z,11.43
2017-05-22T01:44:51.303Z,11.49
2017-05-22T01:45:51.354Z,11.43
2017-05-22T01:46:51.399Z,11.41
2017-05-22T01:47:51.419Z,11.34
2017-05-22T01:48:51.456Z,11.38
2017-05-22T01:49:51.499Z,11.35
2017-05-22T01:50:51.514Z,11.38
2017-05-22T01:51:51.554Z,11.26
2017-05-22T01:52:51.561Z,11.28
2017-05-22T01:53:51.618Z,11.2
2017-05-22T01:54:51.655Z,11.24
2017-05-22T01:55:51.682Z,11.16
2017-05-22T01:56:51.729Z,11.13
2017-05-22T01:57:51.745Z,11.2
2017-05-22T01:58:51.785Z,11.21
2017-05-22T01:59:51.882Z,11.08
2017-05-22T02:00:51.830Z,11.08
2017-05-22T02:01:51.892Z,11.13
2017-05-22T02:02:51.930Z,11.12
2017-05-22T02:03:51.949Z,11.12
2017-05-22T02:04:51.983Z,11.03
2017-05-22T02:05:52.017Z,11.06
2017-05-22T02:06:52.027Z,11.03
2017-05-22T02:07:52.086Z,11.05
2017-05-22T02:08:52.119Z,10.98
2017-05-22T02:09:52.128Z,10.97
2017-05-22T02:10:52.181Z,10.97
2017-05-22T02:11:52.220Z,10.92
2017-05-22T02:12:52.203Z,10.87
2017-05-22T02:13:52.309Z,10.84
2017-05-22T02:14:52.312Z,10.88
2017-05-22T02:15:52.322Z,10.76
2017-05-22T02:16:52.342Z,10.76
2017-05-22T02:17:52.410Z,10.77
2017-05-22T02:18:52.405Z,10.75
2017-05-22T02:19:52.485Z,10.7
2017-05-22T02:20:52.506Z,10.75
2017-05-22T02:21:52.537Z,10.75
2017-05-22T02:22:52.563Z,10.63
2017-05-22T02:23:52.604Z,10.63
2017-05-22T02:24:52.639Z,10.59
2017-05-22T02:25:52.662Z,10.59
2017-05-22T02:26:52.698Z,10.61
2017-05-22T02:27:52.739Z,10.51
2017-05-22T02:28:52.754Z,10.58
2017-05-22T02:29:52.793Z,10.52
2017-05-22T02:30:52.824Z,10.39
2017-05-22T02:31:52.876Z,10.51
2017-05-22T02:32:52.904Z,10.44
2017-05-22T02:33:52.933Z,10.39
2017-05-22T02:34:52.960Z,10.44
2017-05-22T02:35:52.982Z,10.46
2017-05-22T02:36:53.028Z,10.42
2017-05-22T02:37:53.077Z,10.41
2017-05-22T02:38:53.092Z,10.41
2017-05-22T02:39:53.133Z,10.42
2017-05-22T02:40:53.162Z,10.31
2017-05-22T02:41:53.178Z,10.36
2017-05-22T02:42:53.227Z,10.33
2017-05-22T02:43:53.259Z,10.31
2017-05-22T02:44:53.296Z,10.31
2017-05-22T02:45:53.332Z,10.29
2017-05-22T02:46:53.356Z,10.36
2017-05-22T02:47:53.391Z,10.36
2017-05-22T02:48:53.432Z,10.32
2017-05-22T02:49:53.445Z,10.38
2017-05-22T02:50:53.475Z,10.28
2017-05-22T02:51:53.524Z,10.31
2017-05-22T02:52:53.529Z,10.25
2017-05-22T02:53:53.597Z,10.23
2017-05-22T02:54:53.604Z,10.21
2017-05-22T02:55:53.649Z,10.29
2017-05-22T02:56:53.687Z,10.32
2017-05-22T02:57:53.717Z,10.35
2017-05-22T02:58:53.751Z,10.25
2017-05-22T02:59:53.780Z,10.31
2017-05-22T03:00:53.822Z,10.25
2017-05-22T03:01:53.847Z,10.23
2017-05-22T03:02:53.862Z,10.2
2017-05-22T03:03:54.116Z,10.21
2017-05-22T03:04:53.944Z,10.23
2017-05-22T03:05:53.972Z,10.2
2017-05-22T03:06:54.015Z,10.15
2017-05-22T03:07:54.024Z,10.23
2017-05-22T03:08:54.055Z,10.18
2017-05-22T03:09:54.111Z,10.23
2017-05-22T03:10:54.134Z,10.11
2017-05-22T03:11:54.165Z,10.21
2017-05-22T03:12:54.195Z,10.23
2017-05-22T03:13:54.239Z,10.25
2017-05-22T03:14:54.271Z,10.2
2017-05-22T03:15:54.302Z,10.21
2017-05-22T03:16:54.332Z,10.18
2017-05-22T03:17:54.368Z,10.13
2017-05-22T03:18:54.398Z,10.18
2017-05-22T03:19:54.429Z,10.11
2017-05-22T03:20:54.452Z,10.23
2017-05-22T03:21:54.495Z,10.18
2017-05-22T03:22:54.531Z,10.21
2017-05-22T03:23:54.546Z,10.03
2017-05-22T03:24:54.589Z,10.13
2017-05-22T03:25:54.603Z,10.18
2017-05-22T03:26:54.667Z,10.14
2017-05-22T03:27:54.692Z,10.13
2017-05-22T03:28:54.722Z,10
2017-05-22T03:29:54.747Z,10.1
2017-05-22T03:30:54.786Z,10.14
2017-05-22T03:31:54.809Z,10.17
2017-05-22T03:32:54.819Z,10.13
2017-05-22T03:33:54.882Z,10.17
2017-05-22T03:34:54.921Z,10.1
2017-05-22T03:35:54.950Z,10.08
2017-05-22T03:36:54.961Z,10.08
2017-05-22T03:37:54.993Z,10.15
2017-05-22T03:38:55.040Z,10.15
2017-05-22T03:39:55.074Z,10.21
2017-05-22T03:40:55.114Z,10.31
2017-05-22T03:41:55.140Z,10.26
2017-05-22T03:42:55.173Z,10.23
2017-05-22T03:43:55.184Z,10.28
2017-05-22T03:44:55.238Z,10.31
2017-05-22T03:45:55.270Z,10.29
2017-05-22T03:46:55.306Z,10.23
2017-05-22T03:47:55.327Z,10.36
2017-05-22T03:48:55.363Z,10.36
2017-05-22T03:49:55.380Z,10.35
2017-05-22T03:50:55.416Z,10.32
2017-05-22T03:51:55.476Z,10.51
2017-05-22T03:52:55.485Z,10.46
2017-05-22T03:53:55.527Z,10.46
2017-05-22T03:54:55.567Z,10.52
2017-05-22T03:55:55.577Z,10.39
2017-05-22T03:56:55.618Z,10.46
2017-05-22T03:57:55.641Z,10.47
2017-05-22T03:58:55.685Z,10.58
2017-05-22T03:59:55.714Z,10.51
2017-05-22T04:00:55.771Z,10.58
2017-05-22T04:01:55.811Z,10.57
2017-05-22T04:02:55.860Z,10.63
2017-05-22T04:03:55.869Z,10.65
2017-05-22T04:04:55.932Z,10.65
2017-05-22T04:05:55.931Z,10.63
2017-05-22T04:06:55.970Z,10.79
2017-05-22T04:07:56.575Z,10.87
2017-05-22T04:08:56.033Z,10.87
2017-05-22T04:09:56.065Z,10.97
2017-05-22T04:10:56.068Z,11.05
2017-05-22T04:11:56.121Z,11.06
2017-05-22T04:12:56.149Z,11.05
2017-05-22T04:13:56.195Z,11.02
2017-05-22T04:14:56.251Z,11.12
2017-05-22T04:15:56.353Z,11.18
2017-05-22T04:16:56.242Z,11.26
2017-05-22T04:17:56.350Z,11.39
2017-05-22T04:18:56.381Z,11.45
2017-05-22T04:19:56.384Z,11.45
2017-05-22T04:20:56.584Z,11.6
2017-05-22T04:21:56.478Z,11.64
2017-05-22T04:22:56.485Z,11.76
2017-05-22T04:23:56.548Z,11.82
2017-05-22T04:24:56.578Z,11.84
2017-05-22T04:25:56.558Z,11.82
2017-05-22T04:26:56.616Z,11.91
2017-05-22T04:27:56.661Z,11.95
2017-05-22T04:28:56.660Z,12.05
2017-05-22T04:29:56.758Z,12.23
2017-05-22T04:30:56.749Z,12.41
2017-05-22T04:31:56.780Z,12.48
2017-05-22T04:32:56.841Z,12.63
2017-05-22T04:33:56.875Z,12.74
2017-05-22T04:34:56.885Z,12.83
2017-05-22T04:35:56.890Z,12.95
2017-05-22T04:36:56.968Z,13.1
2017-05-22T04:37:57.009Z,13.17
2017-05-22T04:38:56.992Z,13.53
2017-05-22T04:39:57.069Z,13.5
2017-05-22T04:40:57.137Z,13.6
2017-05-22T04:41:57.098Z,13.65
2017-05-22T04:42:57.131Z,13.78
2017-05-22T04:43:57.187Z,13.83
2017-05-22T04:44:57.240Z,13.86
2017-05-22T04:45:57.254Z,13.93
2017-05-22T04:46:57.304Z,14.08
2017-05-22T04:47:57.300Z,14.02
2017-05-22T04:48:57.358Z,14.2
2017-05-22T04:49:57.459Z,14.12
2017-05-22T04:50:57.428Z,14.05
2017-05-22T04:51:57.451Z,14.15
2017-05-22T04:52:57.497Z,14.12
2017-05-22T04:53:57.510Z,14.2
2017-05-22T04:54:57.596Z,14.16
2017-05-22T04:55:57.590Z,14.19
2017-05-22T04:56:57.630Z,14.21
2017-05-22T04:57:57.659Z,14.2
2017-05-22T04:58:57.681Z,14.19
2017-05-22T04:59:57.754Z,14.2
2017-05-22T05:00:57.793Z,14.12
2017-05-22T05:01:57.783Z,14.16
2017-05-22T05:02:57.837Z,14.05
2017-05-22T05:03:57.873Z,14.09
2017-05-22T05:04:57.891Z,14.01
2017-05-22T05:05:57.957Z,14.03
2017-05-22T05:06:58.004Z,14.13
2017-05-22T05:07:58.031Z,14.23
2017-05-22T05:08:58.037Z,14.16
2017-05-22T05:09:58.098Z,14.21
2017-05-22T05:10:58.108Z,14.16
2017-05-22T05:11:58.144Z,14.12
2017-05-22T05:12:58.181Z,14.2
2017-05-22T05:13:58.209Z,14.21
2017-05-22T05:14:58.275Z,14.34
2017-05-22T05:15:58.307Z,14.49
2017-05-22T05:16:58.293Z,14.79
2017-05-22T05:17:58.360Z,15.01
2017-05-22T05:18:58.400Z,15.22
2017-05-22T05:19:58.439Z,15.38
2017-05-22T05:20:58.463Z,15.47
2017-05-22T05:21:58.514Z,15.58
2017-05-22T05:22:58.514Z,15.68
2017-05-22T05:23:58.558Z,15.68
2017-05-22T05:24:58.590Z,15.65
2017-05-22T05:25:58.611Z,15.59
2017-05-22T05:26:58.694Z,15.7
2017-05-22T05:27:58.697Z,15.77
2017-05-22T05:28:58.734Z,15.71
2017-05-22T05:29:58.776Z,15.71
2017-05-22T05:30:58.837Z,15.84
2017-05-22T05:31:58.874Z,16.04
2017-05-22T05:32:58.905Z,16.29
2017-05-22T05:33:58.911Z,16.52
2017-05-22T05:34:58.944Z,16.69
2017-05-22T05:35:59.008Z,16.73
2017-05-22T05:36:59.010Z,16.76
2017-05-22T05:37:59.408Z,16.76
2017-05-22T05:38:59.110Z,16.73
2017-05-22T05:39:59.125Z,16.7
2017-05-22T05:40:59.160Z,16.66
2017-05-22T05:41:59.200Z,16.52
2017-05-22T05:42:59.240Z,16.4
2017-05-22T05:43:59.291Z,16.18
2017-05-22T05:44:59.339Z,16.13
2017-05-22T05:45:59.335Z,16.08
2017-05-22T05:46:59.374Z,15.95
2017-05-22T05:47:59.441Z,15.86
2017-05-22T05:48:59.435Z,15.86
2017-05-22T05:49:59.504Z,15.96
2017-05-22T05:50:59.518Z,16.16
2017-05-22T05:51:59.544Z,16.34
2017-05-22T05:52:59.599Z,16.45
2017-05-22T05:53:59.635Z,16.47
2017-05-22T05:55:00.047Z,16.62
2017-05-22T05:55:59.701Z,16.59
2017-05-22T05:56:59.747Z,16.66
2017-05-22T05:57:59.770Z,16.7
2017-05-22T05:58:59.838Z,16.8
2017-05-22T05:59:59.846Z,16.81
2017-05-22T06:00:59.899Z,17.07
2017-05-22T06:01:59.940Z,17.35
2017-05-22T06:02:59.936Z,17.52
2017-05-22T06:03:59.994Z,17.87
2017-05-22T06:05:00.029Z,18.34
2017-05-22T06:06:00.091Z,18.54
2017-05-22T06:07:00.121Z,18.81
2017-05-22T06:08:00.143Z,19.06
2017-05-22T06:09:00.216Z,19.45
2017-05-22T06:10:00.227Z,19.71
2017-05-22T06:11:00.248Z,20.61
2017-05-22T06:12:00.295Z,21.58
2017-05-22T06:13:00.349Z,22.6
2017-05-22T06:14:00.390Z,23.82
2017-05-22T06:15:00.747Z,25.19
2017-05-22T06:16:00.449Z,26.09
2017-05-22T06:17:00.467Z,27.04
2017-05-22T06:18:00.533Z,27.91
2017-05-22T06:19:00.573Z,28.53
2017-05-22T06:20:00.616Z,29.15
2017-05-22T06:21:00.603Z,29.63
2017-05-22T06:22:00.698Z,30.07
2017-05-22T06:23:00.739Z,30.31
2017-05-22T06:24:00.727Z,30.52
2017-05-22T06:25:00.815Z,30.89
2017-05-22T06:26:00.833Z,31.19
2017-05-22T06:27:00.852Z,31.56
2017-05-22T06:28:00.940Z,31.65
2017-05-22T06:29:00.985Z,31.67
2017-05-22T06:30:00.970Z,31.67
2017-05-22T06:31:01.071Z,31.74
2017-05-22T06:32:01.079Z,31.93
2017-05-22T06:33:01.143Z,32.1
2017-05-22T06:34:01.195Z,31.98
2017-05-22T06:35:01.191Z,31.78
2017-05-22T06:36:01.269Z,31.59
2017-05-22T06:37:01.289Z,31.65
2017-05-22T06:38:01.360Z,31.56
2017-05-22T06:39:01.401Z,31.63
2017-05-22T06:40:01.408Z,31.68
2017-05-22T06:41:01.437Z,31.7
2017-05-22T06:42:01.509Z,32.15
2017-05-22T06:43:01.642Z,32.49
2017-05-22T06:44:01.590Z,32.76
2017-05-22T06:45:01.664Z,33.06
2017-05-22T06:46:01.676Z,33.52
2017-05-22T06:47:01.700Z,33.92
2017-05-22T06:48:01.797Z,34.15
2017-05-22T06:49:01.807Z,34.02
2017-05-22T06:50:01.831Z,33.99
2017-05-22T06:51:01.890Z,33.78
2017-05-22T06:52:01.945Z,33.78
2017-05-22T06:53:01.985Z,33.71
2017-05-22T06:54:02.056Z,33.69
2017-05-22T06:55:02.092Z,33.84
2017-05-22T06:56:02.107Z,34.08
2017-05-22T06:57:02.190Z,34.4
2017-05-22T06:58:02.212Z,34.81
2017-05-22T06:59:02.259Z,34.97
2017-05-22T07:00:02.295Z,35.01
2017-05-22T07:01:02.320Z,35.21
2017-05-22T07:02:02.397Z,35.49
2017-05-22T07:03:02.461Z,35.55
2017-05-22T07:04:02.504Z,35.69
2017-05-22T07:05:02.502Z,35.95
2017-05-22T07:06:02.567Z,36.37
2017-05-22T07:07:02.585Z,36.9
2017-05-22T07:08:02.678Z,37.19
2017-05-22T07:09:02.711Z,37.57
2017-05-22T07:10:02.766Z,37.71
2017-05-22T07:11:02.768Z,37.72
2017-05-22T07:12:02.885Z,37.66
2017-05-22T07:13:02.902Z,37.51
2017-05-22T07:14:02.907Z,37.33
2017-05-22T07:15:03.013Z,37.34
2017-05-22T07:16:03.034Z,37.44
2017-05-22T07:17:03.096Z,37.72
2017-05-22T07:18:03.102Z,37.96
2017-05-22T07:19:03.175Z,38.1
2017-05-22T07:20:03.207Z,38.09
2017-05-22T07:21:03.278Z,38.03
2017-05-22T07:22:03.300Z,38.05
2017-05-22T07:23:03.360Z,38.12
2017-05-22T07:24:03.415Z,37.84
2017-05-22T07:25:03.466Z,37.54
2017-05-22T07:26:03.506Z,37.02
2017-05-22T07:27:03.527Z,36.78
2017-05-22T07:28:03.547Z,36.15
2017-05-22T07:29:03.607Z,35.84
2017-05-22T07:30:03.711Z,35.79
2017-05-22T07:31:03.724Z,35.62
2017-05-22T07:32:03.798Z,35.52
2017-05-22T07:33:03.784Z,35.62
2017-05-22T07:34:03.852Z,35.8
2017-05-22T07:35:03.877Z,35.99
2017-05-22T07:36:03.950Z,36.14
2017-05-22T07:37:04.014Z,36.36
2017-05-22T07:38:04.017Z,36.63
2017-05-22T07:39:04.110Z,37.04
2017-05-22T07:40:04.498Z,37.57
2017-05-22T07:41:04.163Z,37.74
2017-05-22T07:42:04.223Z,37.91
2017-05-22T07:43:04.285Z,38.02
2017-05-22T07:44:04.308Z,37.84
2017-05-22T07:45:04.337Z,37.54
2017-05-22T07:46:04.380Z,37.48
2017-05-22T07:47:04.450Z,37.33
2017-05-22T07:48:04.475Z,37.11
2017-05-22T07:49:04.509Z,37.05
2017-05-22T07:50:04.620Z,37.05
2017-05-22T07:51:04.718Z,37.12
2017-05-22T07:52:04.707Z,37.45
2017-05-22T07:53:04.722Z,37.79
2017-05-22T07:54:04.768Z,37.91
2017-05-22T07:55:04.847Z,37.8
2017-05-22T07:56:04.886Z,37.68
2017-05-22T07:57:04.919Z,37.64
2017-05-22T07:58:04.958Z,37.99
2017-05-22T07:59:05.006Z,38
2017-05-22T08:00:05.298Z,37.98
2017-05-22T08:01:05.124Z,38.05
2017-05-22T08:02:05.120Z,38
2017-05-22T08:03:05.210Z,38.59
2017-05-22T08:04:05.219Z,38.89
2017-05-22T08:05:05.423Z,38.46
2017-05-22T08:06:05.353Z,37.79
2017-05-22T08:07:05.379Z,37.59
2017-05-22T08:08:05.451Z,37.57
2017-05-22T08:09:05.496Z,37.66
2017-05-22T08:10:05.549Z,37.61
2017-05-22T08:11:05.564Z,37.27
2017-05-22T08:12:05.611Z,37.37
2017-05-22T08:13:05.652Z,38.02
2017-05-22T08:14:05.694Z,38.77
2017-05-22T08:15:05.750Z,38.93
2017-05-22T08:16:05.823Z,39
2017-05-22T08:17:05.868Z,39.03
2017-05-22T08:18:05.918Z,39.03
2017-05-22T08:19:05.971Z,39.06
2017-05-22T08:20:06.027Z,39.03
2017-05-22T08:21:06.013Z,38.81
2017-05-22T08:22:06.066Z,38.61
2017-05-22T08:23:06.106Z,38.4
2017-05-22T08:24:06.217Z,38.15
2017-05-22T08:25:06.276Z,38.44
2017-05-22T08:26:06.262Z,38.55
2017-05-22T08:27:06.329Z,38.56
2017-05-22T08:28:06.394Z,38.68
2017-05-22T08:29:06.416Z,39.13
2017-05-22T08:30:06.459Z,39.47
2017-05-22T08:31:06.514Z,39.96
2017-05-22T08:32:06.538Z,40.09
2017-05-22T08:33:06.619Z,40.3
2017-05-22T08:34:06.687Z,40.3
2017-05-22T08:35:06.718Z,39.87
2017-05-22T08:36:06.781Z,39.81
2017-05-22T08:37:06.826Z,39.79
2017-05-22T08:38:06.833Z,39.78
2017-05-22T08:39:06.925Z,39.64
2017-05-22T08:40:06.994Z,39.16
2017-05-22T08:41:07.024Z,38.5
2017-05-22T08:42:07.020Z,38.22
2017-05-22T08:43:07.097Z,38.31
2017-05-22T08:44:07.132Z,38.71
2017-05-22T08:45:07.190Z,38.96
2017-05-22T08:46:07.238Z,39.06
2017-05-22T08:47:07.290Z,39.52
2017-05-22T08:48:07.337Z,39.9
2017-05-22T08:49:07.479Z,40.51
2017-05-22T08:50:07.443Z,41.15
2017-05-22T08:51:07.496Z,41.49
2017-05-22T08:52:07.566Z,41.42
2017-05-22T08:53:07.593Z,41.32
2017-05-22T08:54:07.631Z,41.5
2017-05-22T08:55:07.742Z,41.53
2017-05-22T08:56:07.835Z,41.71
2017-05-22T08:57:07.824Z,40.66
2017-05-22T08:58:07.835Z,39.18
2017-05-22T08:59:07.883Z,38.4
2017-05-22T09:00:08.161Z,37.99
2017-05-22T09:01:08.107Z,37.79
2017-05-22T09:02:08.040Z,37.69
2017-05-22T09:03:08.158Z,38.02
2017-05-22T09:04:08.135Z,37.91
2017-05-22T09:05:08.212Z,38.15
2017-05-22T09:06:08.511Z,38.4
2017-05-22T09:07:08.286Z,38.24
2017-05-22T09:08:08.320Z,38.68
2017-05-22T09:09:08.406Z,39.06
2017-05-22T09:10:08.480Z,39.46
2017-05-22T09:11:08.470Z,39.59
2017-05-22T09:12:08.531Z,39.97
2017-05-22T09:13:08.604Z,40.5
2017-05-22T09:14:08.645Z,40.62
2017-05-22T09:15:09.030Z,40.38
2017-05-22T09:16:08.729Z,40.13
2017-05-22T09:17:08.778Z,39.88
2017-05-22T09:18:08.797Z,39.54
2017-05-22T09:19:08.876Z,39.75
2017-05-22T09:20:08.933Z,40.32
2017-05-22T09:21:09.004Z,40.89
2017-05-22T09:22:09.027Z,40.96
2017-05-22T09:23:09.095Z,40.62
2017-05-22T09:24:09.133Z,40.24
2017-05-22T09:25:09.160Z,39.64
2017-05-22T09:26:09.229Z,39.75
2017-05-22T09:27:09.293Z,40.02
2017-05-22T09:28:09.323Z,40.02
2017-05-22T09:29:09.378Z,40.01
2017-05-22T09:30:09.404Z,39.6
2017-05-22T09:31:09.497Z,39.49
2017-05-22T09:32:09.529Z,39.35
2017-05-22T09:33:09.569Z,38.58
2017-05-22T09:34:09.625Z,37.34
2017-05-22T09:35:09.678Z,36.8
2017-05-22T09:36:09.742Z,36.52
2017-05-22T09:37:09.770Z,36.89
2017-05-22T09:38:09.830Z,37.15
2017-05-22T09:39:09.892Z,37.29
2017-05-22T09:40:09.917Z,36.49
2017-05-22T09:41:09.990Z,34.69
2017-05-22T09:42:10.017Z,32.68
2017-05-22T09:43:10.076Z,30.91
2017-05-22T09:44:10.146Z,29.67
2017-05-22T09:45:10.183Z,30.03
2017-05-22T09:46:10.235Z,30.32
2017-05-22T09:47:10.231Z,29.97
2017-05-22T09:48:10.329Z,29.6
2017-05-22T09:49:10.341Z,28.64
2017-05-22T09:50:10.427Z,27.93
2017-05-22T09:51:10.442Z,27.98
2017-05-22T09:52:10.529Z,29.23
2017-05-22T09:53:10.523Z,30.82
2017-05-22T09:54:10.593Z,32.62
2017-05-22T09:55:10.636Z,34.27
2017-05-22T09:56:10.670Z,35.55
2017-05-22T09:57:10.832Z,36.3
2017-05-22T09:58:10.757Z,36.75
2017-05-22T09:59:10.835Z,37.42
2017-05-22T10:00:10.889Z,38.18
2017-05-22T10:01:10.930Z,39.03
2017-05-22T10:02:11.083Z,39.74
2017-05-22T10:03:10.955Z,40.15
2017-05-22T10:04:11.029Z,40.65
2017-05-22T10:05:11.126Z,40.51
2017-05-22T10:06:11.137Z,40.63
2017-05-22T10:07:11.487Z,40.94
2017-05-22T10:08:11.240Z,40.94
2017-05-22T10:09:11.316Z,40.18
2017-05-22T10:10:11.350Z,38.87
2017-05-22T10:11:11.409Z,37.19
2017-05-22T10:12:11.438Z,34.84
2017-05-22T10:13:11.486Z,32.79
2017-05-22T10:14:11.540Z,31.59
2017-05-22T10:15:11.552Z,30.6
2017-05-22T10:16:11.647Z,30.64
2017-05-22T10:17:11.691Z,31.58
2017-05-22T10:18:11.741Z,32.61
2017-05-22T10:19:11.748Z,33.81
2017-05-22T10:20:11.840Z,35.06
2017-05-22T10:21:11.842Z,35.96
2017-05-22T10:22:11.910Z,36.71
2017-05-22T10:23:11.947Z,37.54
2017-05-22T10:24:12.017Z,37.87
2017-05-22T10:25:12.030Z,37.9
2017-05-22T10:26:12.087Z,37.75
2017-05-22T10:27:12.132Z,37.87
2017-05-22T10:28:12.196Z,38.06
2017-05-22T10:29:12.239Z,37.88
2017-05-22T10:30:12.268Z,37.9
2017-05-22T10:31:12.306Z,37.91
2017-05-22T10:32:12.391Z,37.15
2017-05-22T10:33:12.407Z,35.8
2017-05-22T10:34:12.444Z,34.33
2017-05-22T10:35:12.518Z,33.65
2017-05-22T10:36:12.732Z,32.79
2017-05-22T10:37:12.611Z,31.53
2017-05-22T10:38:12.634Z,30.62
2017-05-22T10:39:12.682Z,29.84
2017-05-22T10:40:12.727Z,29.02
2017-05-22T10:41:12.791Z,28.36
2017-05-22T10:42:12.828Z,27.83
2017-05-22T10:43:12.827Z,27.57
2017-05-22T10:44:12.887Z,27.51
2017-05-22T10:45:12.934Z,27.41
2017-05-22T10:46:13.002Z,27.34
2017-05-22T10:47:13.035Z,27.12
2017-05-22T10:48:13.089Z,26.89
2017-05-22T10:49:13.131Z,26.67
2017-05-22T10:50:13.110Z,26.53
2017-05-22T10:51:13.194Z,26.49
2017-05-22T10:52:13.243Z,26.35
2017-05-22T10:53:13.280Z,26.38
2017-05-22T10:54:13.327Z,26.53
2017-05-22T10:55:13.366Z,27.18
2017-05-22T10:56:13.392Z,27.68
2017-05-22T10:57:13.449Z,27.53
2017-05-22T10:58:13.441Z,27.26
2017-05-22T10:59:13.518Z,27.06
2017-05-22T11:00:13.596Z,26.78
2017-05-22T11:01:13.621Z,26.52
2017-05-22T11:02:13.634Z,26.16
2017-05-22T11:03:13.725Z,25.63
2017-05-22T11:04:13.741Z,25.19
2017-05-22T11:05:13.807Z,24.85
2017-05-22T11:06:13.846Z,24.54
2017-05-22T11:07:13.834Z,24.66
2017-05-22T11:08:13.923Z,24.8
2017-05-22T11:09:13.946Z,24.58
2017-05-22T11:10:13.941Z,24.42
2017-05-22T11:11:14.046Z,24.48
2017-05-22T11:12:14.015Z,24.4
2017-05-22T11:13:14.114Z,24.37
2017-05-22T11:14:14.223Z,24.8
2017-05-22T11:15:14.174Z,25.74
2017-05-22T11:16:14.288Z,26.47
2017-05-22T11:17:14.242Z,26.49
2017-05-22T11:18:14.280Z,26.24
2017-05-22T11:19:14.349Z,25.85
2017-05-22T11:20:14.371Z,25.48
2017-05-22T11:21:14.450Z,25.19
2017-05-22T11:22:14.493Z,24.92
2017-05-22T11:23:14.512Z,25.6
2017-05-22T11:24:14.535Z,27
2017-05-22T11:25:14.612Z,28.46
2017-05-22T11:26:14.652Z,29.63
2017-05-22T11:27:14.669Z,30.29
2017-05-22T11:28:14.734Z,30.97
2017-05-22T11:29:14.767Z,31.06
2017-05-22T11:30:14.818Z,30.45
2017-05-22T11:31:14.857Z,29.57
2017-05-22T11:32:14.853Z,28.6
2017-05-22T11:33:14.930Z,27.94
2017-05-22T11:34:14.950Z,27.41
2017-05-22T11:35:14.969Z,26.84
2017-05-22T11:36:15.027Z,26.38
2017-05-22T11:37:15.094Z,25.94
2017-05-22T11:38:15.108Z,25.6
2017-05-22T11:39:15.152Z,25.38
2017-05-22T11:40:15.210Z,25.14
2017-05-22T11:41:15.229Z,24.77
2017-05-22T11:42:15.242Z,24.48
2017-05-22T11:43:15.338Z,24.21
2017-05-22T11:44:15.352Z,23.99
2017-05-22T11:45:15.369Z,23.79
2017-05-22T11:46:15.463Z,23.79
2017-05-22T11:47:15.467Z,23.72
2017-05-22T11:48:15.524Z,23.64
2017-05-22T11:49:15.554Z,23.52
2017-05-22T11:50:15.691Z,23.6
2017-05-22T11:51:15.653Z,23.64
2017-05-22T11:52:15.662Z,23.66
2017-05-22T11:53:15.710Z,23.78
2017-05-22T11:54:15.769Z,23.96
2017-05-22T11:55:15.965Z,23.94
2017-05-22T11:56:15.833Z,23.9
2017-05-22T11:57:15.850Z,23.75
2017-05-22T11:58:15.911Z,23.72
2017-05-22T11:59:15.967Z,23.67
2017-05-22T12:00:16.090Z,23.64
2017-05-22T12:01:16.053Z,23.44
2017-05-22T12:02:16.089Z,23.4
2017-05-22T12:03:16.131Z,23.42
2017-05-22T12:04:16.165Z,23.48
2017-05-22T12:05:16.301Z,23.57
2017-05-22T12:06:16.200Z,23.67
2017-05-22T12:07:16.259Z,23.66
2017-05-22T12:08:16.323Z,23.75
2017-05-22T12:09:16.345Z,23.71
2017-05-22T12:10:16.402Z,23.78
2017-05-22T12:11:16.447Z,23.74
2017-05-22T12:12:16.472Z,23.79
2017-05-22T12:13:16.505Z,23.89
2017-05-22T12:14:16.563Z,23.92
2017-05-22T12:15:16.556Z,23.93
2017-05-22T12:16:16.638Z,23.84
2017-05-22T12:17:16.662Z,23.79
2017-05-22T12:18:16.677Z,23.63
2017-05-22T12:19:16.753Z,23.56
2017-05-22T12:20:16.769Z,23.44
2017-05-22T12:21:16.845Z,23.48
2017-05-22T12:22:16.876Z,23.4
2017-05-22T12:23:16.898Z,23.53
2017-05-22T12:24:16.930Z,23.53
2017-05-22T12:25:16.943Z,23.6
2017-05-22T12:26:17.039Z,23.63
2017-05-22T12:27:17.080Z,23.66
2017-05-22T12:28:17.089Z,23.7
2017-05-22T12:29:17.130Z,23.75
2017-05-22T12:30:17.171Z,23.79
2017-05-22T12:31:17.185Z,23.82
2017-05-22T12:32:17.281Z,23.85
2017-05-22T12:33:17.301Z,23.89
2017-05-22T12:34:17.339Z,23.87
2017-05-22T12:35:17.387Z,23.84
2017-05-22T12:36:17.421Z,23.82
2017-05-22T12:37:17.498Z,23.77
2017-05-22T12:38:17.485Z,23.74
2017-05-22T12:39:17.524Z,23.66
2017-05-22T12:40:17.689Z,23.64
2017-05-22T12:41:17.597Z,23.59
2017-05-22T12:42:17.643Z,23.55
2017-05-22T12:43:17.670Z,23.47
2017-05-22T12:44:17.736Z,23.37
2017-05-22T12:45:17.888Z,23.29
2017-05-22T12:46:17.822Z,23.38
2017-05-22T12:47:17.815Z,23.35
2017-05-22T12:48:17.853Z,23.35
2017-05-22T12:49:17.898Z,23.34
2017-05-22T12:50:18.100Z,23.29
2017-05-22T12:51:17.989Z,23.28
2017-05-22T12:52:18.035Z,23.37
2017-05-22T12:53:18.100Z,23.42
2017-05-22T12:54:18.105Z,23.41
2017-05-22T12:55:18.507Z,23.47
2017-05-22T12:56:18.197Z,23.44